UAE23C OMDB-FACT
Flight info
| Callsign | UAE23C |
|---|---|
| Flight time | N/A |
| Altitude | 32000 |
| Route | ANVIX R401 GIDIS G783 ASPED/N0495F340 G783 UKRAG/N0500F330 L710 KUKDI/N0499F340 B400 VEDET UL437 IMKAK/N0495F360 UL437 VBU UP305 GABMU/N0485F380 UP305 XOXAM UT969 ESPUV DCT UDGIM UQ60 NEXIT UQ23 OKLOK DCT ERDAS ERDAS1B |
| Aircraft | B77W/H-SDE1E2E3FGHIJ2J3J4J5M1RWXY/LB1D1 |
Departure
| Time | 2026-04-21 20:09 |
|---|---|
| Airport | Dubai International Airport (OMDB) |
Arrival
| Time | N/A |
|---|---|
| Airport | Cape Town International Airport (FACT) |
| Time | Latitude | Longitude | Altitude | Speed | Heading |
|---|---|---|---|---|---|
| 2026-04-21 19:30 | 25.24529 | 55.37051 | 30 ft | 0 kts | 211° |
| 2026-04-21 19:31 | 25.24524 | 55.37048 | 29 ft | 0 kts | 211° |
| 2026-04-21 19:54 | 25.24545 | 55.37062 | 31 ft | 4 kts | 211° |
| 2026-04-21 19:54 | 25.24568 | 55.37078 | 31 ft | 4 kts | 211° |
| 2026-04-21 19:54 | 25.24591 | 55.37091 | 31 ft | 4 kts | 191° |
| 2026-04-21 19:55 | 25.24615 | 55.37089 | 30 ft | 4 kts | 140° |
| 2026-04-21 19:55 | 25.24628 | 55.37072 | 31 ft | 4 kts | 122° |
| 2026-04-21 19:55 | 25.24642 | 55.37047 | 31 ft | 3 kts | 122° |
| 2026-04-21 19:55 | 25.24643 | 55.37044 | 31 ft | 0 kts | 122° |
| 2026-04-21 20:01 | 25.24633 | 55.37062 | 31 ft | 8 kts | 122° |
| 2026-04-21 20:01 | 25.24595 | 55.37128 | 29 ft | 12 kts | 122° |
| 2026-04-21 20:02 | 25.24548 | 55.37210 | 30 ft | 14 kts | 122° |
| 2026-04-21 20:02 | 25.24496 | 55.37304 | 28 ft | 15 kts | 122° |
| 2026-04-21 20:02 | 25.24443 | 55.37404 | 28 ft | 15 kts | 112° |
| 2026-04-21 20:02 | 25.24427 | 55.37518 | 29 ft | 15 kts | 91° |
| 2026-04-21 20:03 | 25.24413 | 55.37630 | 28 ft | 14 kts | 111° |
| 2026-04-21 20:03 | 25.24383 | 55.37689 | 29 ft | 3 kts | 120° |
| 2026-04-21 20:03 | 25.24378 | 55.37715 | 29 ft | 4 kts | 88° |
| 2026-04-21 20:03 | 25.24387 | 55.37737 | 26 ft | 3 kts | 57° |
| 2026-04-21 20:04 | 25.24396 | 55.37748 | 26 ft | 0 kts | 46° |
| 2026-04-21 20:05 | 25.24397 | 55.37748 | 26 ft | 1 kts | 46° |
| 2026-04-21 20:05 | 25.24421 | 55.37770 | 25 ft | 8 kts | 37° |
| 2026-04-21 20:06 | 25.24491 | 55.37825 | 27 ft | 17 kts | 34° |
| 2026-04-21 20:06 | 25.24586 | 55.37896 | 28 ft | 13 kts | 34° |
| 2026-04-21 20:06 | 25.24654 | 55.37947 | 27 ft | 9 kts | 33° |
| 2026-04-21 20:06 | 25.24681 | 55.37966 | 28 ft | 1 kts | 32° |
| 2026-04-21 20:07 | 25.24682 | 55.37967 | 28 ft | 0 kts | 32° |
| 2026-04-21 20:07 | 25.24703 | 55.37981 | 28 ft | 7 kts | 32° |
| 2026-04-21 20:07 | 25.24760 | 55.38020 | 30 ft | 10 kts | 30° |
| 2026-04-21 20:08 | 25.24812 | 55.38012 | 30 ft | 6 kts | 314° |
| 2026-04-21 20:08 | 25.24837 | 55.37970 | 30 ft | 7 kts | 302° |
| 2026-04-21 20:08 | 25.24901 | 55.37856 | 30 ft | 39 kts | 301° |
| 2026-04-21 20:08 | 25.25175 | 55.37363 | 32 ft | 109 kts | 301° |
| 2026-04-21 20:09 | 25.25682 | 55.36447 | 29 ft | 168 kts | 301° |
| 2026-04-21 20:09 | 25.26376 | 55.35200 | 92 ft | 205 kts | 301° |
| 2026-04-21 20:09 | 25.27102 | 55.33862 | 650 ft | 203 kts | 300° |
| 2026-04-21 20:09 | 25.27827 | 55.32474 | 1055 ft | 214 kts | 300° |
| 2026-04-21 20:10 | 25.28554 | 55.31007 | 1438 ft | 221 kts | 297° |
| 2026-04-21 20:10 | 25.29093 | 55.29449 | 2000 ft | 215 kts | 278° |
| 2026-04-21 20:10 | 25.28919 | 55.27847 | 2385 ft | 213 kts | 242° |
| 2026-04-21 20:10 | 25.28240 | 55.26394 | 2712 ft | 214 kts | 242° |
| 2026-04-21 20:11 | 25.27602 | 55.24907 | 3122 ft | 214 kts | 243° |
| 2026-04-21 20:11 | 25.26974 | 55.23423 | 3562 ft | 213 kts | 242° |
| 2026-04-21 20:11 | 25.26353 | 55.21964 | 3968 ft | 212 kts | 243° |
| 2026-04-21 20:11 | 25.25714 | 55.20456 | 4219 ft | 226 kts | 242° |
| 2026-04-21 20:12 | 25.25027 | 55.18841 | 4495 ft | 236 kts | 243° |
| 2026-04-21 20:12 | 25.24124 | 55.17325 | 4810 ft | 240 kts | 216° |
| 2026-04-21 20:12 | 25.23134 | 55.16753 | 5057 ft | 242 kts | 191° |
| 2026-04-21 20:12 | 25.20875 | 55.16758 | 5451 ft | 252 kts | 175° |
| 2026-04-21 20:13 | 25.19149 | 55.17160 | 5832 ft | 258 kts | 151° |
| 2026-04-21 20:13 | 25.17802 | 55.18495 | 6115 ft | 271 kts | 122° |
| 2026-04-21 20:13 | 25.16905 | 55.20369 | 6349 ft | 282 kts | 118° |
| 2026-04-21 20:13 | 25.15987 | 55.22318 | 6827 ft | 288 kts | 119° |
| 2026-04-21 20:14 | 25.15047 | 55.24288 | 7408 ft | 291 kts | 119° |
| 2026-04-21 20:14 | 25.14112 | 55.26245 | 7994 ft | 294 kts | 120° |
| 2026-04-21 20:14 | 25.13152 | 55.28248 | 8555 ft | 297 kts | 120° |
| 2026-04-21 20:14 | 25.12178 | 55.30278 | 9099 ft | 301 kts | 120° |
| 2026-04-21 20:15 | 25.11191 | 55.32332 | 9659 ft | 305 kts | 120° |
| 2026-04-21 20:15 | 25.10218 | 55.34430 | 10171 ft | 310 kts | 117° |
| 2026-04-21 20:15 | 25.09308 | 55.36647 | 10401 ft | 328 kts | 116° |
| 2026-04-21 20:15 | 25.08352 | 55.39017 | 10584 ft | 348 kts | 116° |
| 2026-04-21 20:16 | 25.07330 | 55.41525 | 10725 ft | 368 kts | 116° |
| 2026-04-21 20:16 | 25.06282 | 55.44186 | 10907 ft | 387 kts | 115° |
| 2026-04-21 20:16 | 25.05237 | 55.46930 | 11328 ft | 399 kts | 114° |
| 2026-04-21 20:16 | 25.04153 | 55.49778 | 11884 ft | 406 kts | 114° |
| 2026-04-21 20:17 | 25.03049 | 55.52659 | 12628 ft | 409 kts | 114° |
| 2026-04-21 20:17 | 25.01929 | 55.55551 | 13366 ft | 411 kts | 116° |
| 2026-04-21 20:17 | 25.00595 | 55.58368 | 13913 ft | 417 kts | 122° |
| 2026-04-21 20:17 | 24.99050 | 55.61099 | 14528 ft | 421 kts | 124° |
| 2026-04-21 20:18 | 24.98001 | 55.62902 | 14982 ft | 423 kts | 124° |
| 2026-04-21 20:18 | 24.95919 | 55.66601 | 15900 ft | 427 kts | 122° |
| 2026-04-21 20:18 | 24.94386 | 55.69424 | 16568 ft | 431 kts | 122° |
| 2026-04-21 20:18 | 24.92756 | 55.72210 | 17208 ft | 435 kts | 127° |
| 2026-04-21 20:19 | 24.90961 | 55.74905 | 17848 ft | 439 kts | 128° |
| 2026-04-21 20:19 | 24.89127 | 55.77560 | 18414 ft | 443 kts | 129° |
| 2026-04-21 20:19 | 24.87268 | 55.80284 | 18980 ft | 447 kts | 128° |
| 2026-04-21 20:19 | 24.85420 | 55.83048 | 19522 ft | 450 kts | 128° |
| 2026-04-21 20:20 | 24.83564 | 55.85846 | 20084 ft | 454 kts | 128° |
| 2026-04-21 20:20 | 24.81680 | 55.88655 | 20612 ft | 458 kts | 129° |
| 2026-04-21 20:20 | 24.79557 | 55.91235 | 20939 ft | 457 kts | 145° |
| 2026-04-21 20:20 | 24.76791 | 55.92916 | 21348 ft | 455 kts | 163° |
| 2026-04-21 20:21 | 24.73735 | 55.93727 | 21892 ft | 450 kts | 178° |
| 2026-04-21 20:21 | 24.70630 | 55.93758 | 22478 ft | 446 kts | 187° |
| 2026-04-21 20:21 | 24.67561 | 55.93549 | 22911 ft | 451 kts | 187° |
| 2026-04-21 20:21 | 24.64411 | 55.93393 | 23390 ft | 452 kts | 188° |
| 2026-04-21 20:22 | 24.61323 | 55.92817 | 23721 ft | 450 kts | 201° |
| 2026-04-21 20:22 | 24.55898 | 55.89567 | 24526 ft | 442 kts | 224° |
| 2026-04-21 20:22 | 24.53607 | 55.87294 | 24836 ft | 447 kts | 225° |
| 2026-04-21 20:23 | 24.51295 | 55.84997 | 25208 ft | 451 kts | 224° |
| 2026-04-21 20:23 | 24.48946 | 55.82694 | 25619 ft | 453 kts | 224° |
| 2026-04-21 20:23 | 24.46608 | 55.80429 | 26030 ft | 456 kts | 224° |
| 2026-04-21 20:23 | 24.44218 | 55.78130 | 26407 ft | 459 kts | 224° |
| 2026-04-21 20:24 | 24.41804 | 55.75816 | 26769 ft | 462 kts | 224° |
| 2026-04-21 20:24 | 24.39375 | 55.73489 | 27124 ft | 466 kts | 224° |
| 2026-04-21 20:24 | 24.36925 | 55.71142 | 27491 ft | 469 kts | 224° |
| 2026-04-21 20:24 | 24.34470 | 55.68777 | 27845 ft | 471 kts | 224° |
| 2026-04-21 20:25 | 24.32004 | 55.66393 | 28191 ft | 474 kts | 224° |
| 2026-04-21 20:25 | 24.29507 | 55.64011 | 28522 ft | 478 kts | 221° |
| 2026-04-21 20:25 | 24.26805 | 55.61934 | 28783 ft | 484 kts | 213° |
| 2026-04-21 20:25 | 24.23808 | 55.60225 | 29074 ft | 489 kts | 207° |
| 2026-04-21 20:26 | 24.20618 | 55.58872 | 29370 ft | 495 kts | 199° |
| 2026-04-21 20:26 | 24.17285 | 55.57891 | 29665 ft | 498 kts | 197° |
| 2026-04-21 20:26 | 24.13922 | 55.56958 | 29993 ft | 498 kts | 197° |
| 2026-04-21 20:26 | 24.10566 | 55.56016 | 30358 ft | 497 kts | 198° |
| 2026-04-21 20:27 | 24.07230 | 55.55050 | 30735 ft | 495 kts | 198° |
| 2026-04-21 20:27 | 24.03905 | 55.54067 | 31097 ft | 494 kts | 198° |
| 2026-04-21 20:27 | 24.00593 | 55.53083 | 31429 ft | 494 kts | 198° |
| 2026-04-21 20:27 | 23.97444 | 55.52145 | 31721 ft | 494 kts | 199° |
| 2026-04-21 20:28 | 23.90763 | 55.50154 | 31799 ft | 499 kts | 198° |
| 2026-04-21 20:28 | 23.84102 | 55.48175 | 31786 ft | 493 kts | 199° |
| 2026-04-21 20:29 | 23.77489 | 55.46205 | 31790 ft | 492 kts | 199° |
| 2026-04-21 20:29 | 23.70928 | 55.44248 | 31780 ft | 492 kts | 199° |
| 2026-04-21 20:30 | 23.64319 | 55.42280 | 31805 ft | 493 kts | 199° |
| 2026-04-21 20:30 | 23.57694 | 55.40310 | 31789 ft | 494 kts | 199° |
| 2026-04-21 20:31 | 23.50861 | 55.39303 | 31786 ft | 502 kts | 181° |
| 2026-04-21 20:31 | 23.43928 | 55.40513 | 31801 ft | 510 kts | 166° |
| 2026-04-21 20:32 | 23.37442 | 55.42611 | 31792 ft | 511 kts | 166° |
| 2026-04-21 20:32 | 23.30848 | 55.44750 | 31788 ft | 512 kts | 166° |
| 2026-04-21 20:33 | 23.24007 | 55.46927 | 31783 ft | 512 kts | 167° |
| 2026-04-21 20:33 | 23.17168 | 55.49084 | 31779 ft | 512 kts | 167° |
| 2026-04-21 20:34 | 23.10373 | 55.51227 | 31786 ft | 511 kts | 167° |
| 2026-04-21 20:34 | 23.03544 | 55.53379 | 31789 ft | 511 kts | 167° |
| 2026-04-21 20:35 | 22.96713 | 55.55484 | 31778 ft | 509 kts | 167° |
| 2026-04-21 20:35 | 22.89895 | 55.57553 | 31774 ft | 509 kts | 167° |
| 2026-04-21 20:36 | 22.83102 | 55.59620 | 31958 ft | 513 kts | 167° |
| 2026-04-21 20:36 | 22.79667 | 55.60668 | 32275 ft | 512 kts | 167° |
| 2026-04-21 20:36 | 22.76246 | 55.61712 | 32601 ft | 511 kts | 168° |
| 2026-04-21 20:37 | 22.72816 | 55.62758 | 32855 ft | 512 kts | 168° |
| 2026-04-21 20:37 | 22.69382 | 55.63804 | 33082 ft | 513 kts | 168° |
| 2026-04-21 20:37 | 22.65941 | 55.64852 | 33272 ft | 515 kts | 168° |
| 2026-04-21 20:37 | 22.62490 | 55.65902 | 33512 ft | 516 kts | 168° |
| 2026-04-21 20:38 | 22.59032 | 55.66957 | 33709 ft | 517 kts | 168° |
| 2026-04-21 20:38 | 22.55557 | 55.68021 | 33752 ft | 520 kts | 168° |
| 2026-04-21 20:38 | 22.48653 | 55.70140 | 33771 ft | 517 kts | 168° |
| 2026-04-21 20:39 | 22.41760 | 55.72254 | 33773 ft | 514 kts | 168° |
| 2026-04-21 20:39 | 22.34886 | 55.74355 | 33781 ft | 513 kts | 168° |
| 2026-04-21 20:40 | 22.28010 | 55.76445 | 33778 ft | 513 kts | 169° |
| 2026-04-21 20:40 | 22.21016 | 55.77715 | 33772 ft | 507 kts | 179° |
| 2026-04-21 20:41 | 22.14029 | 55.78340 | 33776 ft | 508 kts | 180° |
| 2026-04-21 20:41 | 22.06976 | 55.79004 | 33786 ft | 509 kts | 179° |
| 2026-04-21 20:42 | 21.99915 | 55.79709 | 33784 ft | 510 kts | 179° |
| 2026-04-21 20:42 | 21.92853 | 55.80425 | 33779 ft | 510 kts | 179° |
| 2026-04-21 20:43 | 21.85837 | 55.81132 | 33779 ft | 510 kts | 179° |
| 2026-04-21 20:43 | 21.78774 | 55.81840 | 33785 ft | 510 kts | 179° |
| 2026-04-21 20:44 | 21.71706 | 55.82549 | 33782 ft | 510 kts | 179° |
| 2026-04-21 20:44 | 21.64636 | 55.83249 | 33776 ft | 510 kts | 179° |
| 2026-04-21 20:45 | 21.57604 | 55.83934 | 33782 ft | 511 kts | 179° |
| 2026-04-21 20:45 | 21.50514 | 55.84624 | 33785 ft | 512 kts | 179° |
| 2026-04-21 20:46 | 21.43408 | 55.85318 | 33788 ft | 513 kts | 179° |
| 2026-04-21 20:46 | 21.36287 | 55.86013 | 33787 ft | 514 kts | 179° |
| 2026-04-21 20:47 | 21.29167 | 55.86708 | 33784 ft | 514 kts | 179° |
| 2026-04-21 20:47 | 21.22086 | 55.87394 | 33786 ft | 514 kts | 179° |
| 2026-04-21 20:48 | 21.14964 | 55.88077 | 33786 ft | 514 kts | 179° |
| 2026-04-21 20:48 | 21.07845 | 55.88761 | 33779 ft | 514 kts | 180° |
| 2026-04-21 20:49 | 21.00709 | 55.89446 | 33798 ft | 515 kts | 180° |
| 2026-04-21 20:49 | 20.93605 | 55.90127 | 33792 ft | 517 kts | 180° |
| 2026-04-21 20:50 | 20.86437 | 55.90815 | 33795 ft | 518 kts | 180° |
| 2026-04-21 20:50 | 20.79254 | 55.91515 | 33789 ft | 519 kts | 179° |
| 2026-04-21 20:51 | 20.72064 | 55.92225 | 33801 ft | 519 kts | 179° |
| 2026-04-21 20:51 | 20.64910 | 55.92929 | 33799 ft | 520 kts | 179° |
| 2026-04-21 20:52 | 20.57703 | 55.93636 | 33771 ft | 520 kts | 179° |
| 2026-04-21 20:52 | 20.50502 | 55.94341 | 33793 ft | 520 kts | 179° |
| 2026-04-21 20:53 | 20.43295 | 55.95046 | 33808 ft | 520 kts | 179° |
| 2026-04-21 20:53 | 20.36130 | 55.95747 | 33811 ft | 521 kts | 179° |
| 2026-04-21 20:54 | 20.28914 | 55.96450 | 33799 ft | 521 kts | 180° |
| 2026-04-21 20:54 | 20.21679 | 55.97137 | 33822 ft | 522 kts | 180° |
| 2026-04-21 20:55 | 20.14428 | 55.97825 | 33815 ft | 524 kts | 180° |
| 2026-04-21 20:55 | 20.07217 | 55.98467 | 33805 ft | 523 kts | 182° |
| 2026-04-21 20:56 | 19.99962 | 55.98658 | 33810 ft | 522 kts | 184° |
| 2026-04-21 20:56 | 19.92684 | 55.98791 | 33825 ft | 524 kts | 184° |
| 2026-04-21 20:57 | 19.86616 | 55.98923 | 33827 ft | 525 kts | 184° |
| 2026-04-21 20:57 | 19.78108 | 55.99131 | 33828 ft | 527 kts | 184° |
| 2026-04-21 20:58 | 19.71963 | 55.99283 | 33815 ft | 527 kts | 184° |
| 2026-04-21 20:58 | 19.64677 | 55.99460 | 33826 ft | 528 kts | 184° |
| 2026-04-21 20:59 | 19.57333 | 55.99637 | 33830 ft | 527 kts | 184° |
| 2026-04-21 20:59 | 19.50178 | 55.98705 | 33834 ft | 512 kts | 202° |
| 2026-04-21 21:00 | 19.43728 | 55.95810 | 33829 ft | 497 kts | 217° |
| 2026-04-21 21:00 | 19.37769 | 55.92068 | 33833 ft | 499 kts | 217° |
| 2026-04-21 21:01 | 19.31794 | 55.88378 | 33835 ft | 502 kts | 216° |
| 2026-04-21 21:01 | 19.25725 | 55.84694 | 33834 ft | 503 kts | 216° |
| 2026-04-21 21:02 | 19.19640 | 55.81015 | 33834 ft | 504 kts | 216° |
| 2026-04-21 21:02 | 19.13556 | 55.77335 | 33817 ft | 504 kts | 216° |
| 2026-04-21 21:03 | 19.07519 | 55.73682 | 33831 ft | 503 kts | 216° |
| 2026-04-21 21:03 | 19.01438 | 55.70013 | 33840 ft | 503 kts | 216° |
| 2026-04-21 21:04 | 18.95349 | 55.66353 | 33842 ft | 503 kts | 216° |
| 2026-04-21 21:04 | 18.89261 | 55.62696 | 33840 ft | 503 kts | 216° |
| 2026-04-21 21:05 | 18.83175 | 55.59040 | 33844 ft | 503 kts | 216° |
| 2026-04-21 21:05 | 18.77128 | 55.55410 | 33837 ft | 503 kts | 216° |
| 2026-04-21 21:06 | 18.71042 | 55.51760 | 33847 ft | 503 kts | 216° |
| 2026-04-21 21:06 | 18.64949 | 55.48109 | 33846 ft | 504 kts | 216° |
| 2026-04-21 21:07 | 18.58850 | 55.44458 | 33843 ft | 504 kts | 216° |
| 2026-04-21 21:07 | 18.52792 | 55.40833 | 33846 ft | 504 kts | 216° |
| 2026-04-21 21:08 | 18.46693 | 55.37187 | 33841 ft | 504 kts | 216° |
| 2026-04-21 21:08 | 18.40592 | 55.33542 | 33843 ft | 504 kts | 216° |
| 2026-04-21 21:09 | 18.34488 | 55.29900 | 33846 ft | 504 kts | 216° |
| 2026-04-21 21:09 | 18.28390 | 55.26261 | 33836 ft | 504 kts | 216° |
| 2026-04-21 21:10 | 18.22336 | 55.22650 | 33845 ft | 503 kts | 216° |
| 2026-04-21 21:10 | 18.16247 | 55.19020 | 33836 ft | 503 kts | 216° |
| 2026-04-21 21:11 | 18.09927 | 55.15770 | 33850 ft | 509 kts | 209° |
| 2026-04-21 21:11 | 18.03387 | 55.12890 | 33850 ft | 510 kts | 208° |
| 2026-04-21 21:12 | 17.96881 | 55.10020 | 33851 ft | 511 kts | 209° |
| 2026-04-21 21:12 | 17.90343 | 55.07100 | 33849 ft | 511 kts | 209° |
| 2026-04-21 21:13 | 17.83805 | 55.04166 | 33843 ft | 511 kts | 209° |
| 2026-04-21 21:13 | 17.77256 | 55.01230 | 33855 ft | 512 kts | 209° |
| 2026-04-21 21:14 | 17.70749 | 54.98318 | 33859 ft | 512 kts | 209° |
| 2026-04-21 21:14 | 17.64194 | 54.95388 | 33856 ft | 512 kts | 209° |
| 2026-04-21 21:15 | 17.57640 | 54.92460 | 33859 ft | 512 kts | 209° |
| 2026-04-21 21:15 | 17.51085 | 54.89533 | 33869 ft | 512 kts | 208° |
| 2026-04-21 21:16 | 17.44537 | 54.86613 | 33867 ft | 511 kts | 208° |
| 2026-04-21 21:16 | 17.38037 | 54.83718 | 33882 ft | 511 kts | 208° |
| 2026-04-21 21:17 | 17.31495 | 54.80802 | 33886 ft | 511 kts | 208° |
| 2026-04-21 21:17 | 17.25099 | 54.77639 | 33887 ft | 505 kts | 217° |
| 2026-04-21 21:18 | 17.19227 | 54.73677 | 33878 ft | 502 kts | 219° |
| 2026-04-21 21:18 | 17.13382 | 54.69695 | 33898 ft | 501 kts | 219° |
| 2026-04-21 21:19 | 17.07555 | 54.65785 | 33896 ft | 501 kts | 218° |
| 2026-04-21 21:19 | 17.01688 | 54.61870 | 33901 ft | 500 kts | 218° |
| 2026-04-21 21:20 | 16.95823 | 54.57955 | 33893 ft | 500 kts | 218° |
| 2026-04-21 21:20 | 16.89965 | 54.54045 | 33878 ft | 500 kts | 218° |
| 2026-04-21 21:21 | 16.84139 | 54.50159 | 33881 ft | 500 kts | 218° |
| 2026-04-21 21:21 | 16.78272 | 54.46246 | 33870 ft | 500 kts | 218° |
| 2026-04-21 21:22 | 16.72403 | 54.42334 | 33869 ft | 501 kts | 218° |
| 2026-04-21 21:22 | 16.66535 | 54.38424 | 33868 ft | 501 kts | 218° |
| 2026-04-21 21:23 | 16.60663 | 54.34514 | 33872 ft | 501 kts | 218° |
| 2026-04-21 21:23 | 16.54830 | 54.30633 | 33867 ft | 501 kts | 218° |
| 2026-04-21 21:24 | 16.48953 | 54.26726 | 33876 ft | 501 kts | 218° |
| 2026-04-21 21:24 | 16.43077 | 54.22823 | 33869 ft | 501 kts | 218° |
| 2026-04-21 21:25 | 16.37206 | 54.18926 | 33874 ft | 500 kts | 218° |
| 2026-04-21 21:25 | 16.31371 | 54.15055 | 33873 ft | 500 kts | 218° |
| 2026-04-21 21:26 | 16.25502 | 54.11165 | 33871 ft | 500 kts | 218° |
| 2026-04-21 21:26 | 16.19631 | 54.07275 | 33876 ft | 501 kts | 218° |
| 2026-04-21 21:27 | 16.13750 | 54.03382 | 33879 ft | 501 kts | 218° |
| 2026-04-21 21:27 | 16.07860 | 53.99486 | 33873 ft | 502 kts | 218° |
| 2026-04-21 21:28 | 16.02004 | 53.95615 | 33881 ft | 502 kts | 218° |
| 2026-04-21 21:29 | 15.93154 | 53.89769 | 33873 ft | 503 kts | 218° |
| 2026-04-21 21:29 | 15.87246 | 53.85869 | 33878 ft | 503 kts | 218° |
| 2026-04-21 21:30 | 15.81349 | 53.81941 | 33883 ft | 504 kts | 218° |
| 2026-04-21 21:30 | 15.75495 | 53.78023 | 33883 ft | 504 kts | 218° |
| 2026-04-21 21:31 | 15.69596 | 53.74083 | 33883 ft | 504 kts | 218° |
| 2026-04-21 21:31 | 15.63693 | 53.70147 | 33879 ft | 504 kts | 218° |
| 2026-04-21 21:32 | 15.57796 | 53.66218 | 33871 ft | 504 kts | 218° |
| 2026-04-21 21:32 | 15.51903 | 53.62294 | 33879 ft | 503 kts | 218° |
| 2026-04-21 21:33 | 15.46051 | 53.58398 | 33880 ft | 503 kts | 218° |
| 2026-04-21 21:33 | 15.40137 | 53.54501 | 33875 ft | 504 kts | 217° |
| 2026-04-21 21:34 | 15.34169 | 53.50687 | 33877 ft | 504 kts | 217° |
| 2026-04-21 21:34 | 15.28186 | 53.46877 | 33879 ft | 504 kts | 217° |
| 2026-04-21 21:35 | 15.22253 | 53.43085 | 33879 ft | 505 kts | 217° |
| 2026-04-21 21:35 | 15.16281 | 53.39261 | 33875 ft | 505 kts | 217° |
| 2026-04-21 21:36 | 15.10310 | 53.35439 | 33890 ft | 505 kts | 217° |
| 2026-04-21 21:36 | 15.04334 | 53.31618 | 33878 ft | 505 kts | 217° |
| 2026-04-21 21:37 | 14.98398 | 53.27825 | 33876 ft | 505 kts | 217° |
| 2026-04-21 21:37 | 14.92420 | 53.24007 | 33880 ft | 505 kts | 217° |
| 2026-04-21 21:38 | 14.86442 | 53.20193 | 33872 ft | 505 kts | 217° |
| 2026-04-21 21:38 | 14.80456 | 53.16375 | 33873 ft | 505 kts | 217° |
| 2026-04-21 21:39 | 14.74510 | 53.12586 | 33884 ft | 506 kts | 217° |
| 2026-04-21 21:39 | 14.68524 | 53.08772 | 33882 ft | 506 kts | 217° |
| 2026-04-21 21:40 | 14.62541 | 53.04955 | 33863 ft | 506 kts | 217° |
| 2026-04-21 21:40 | 14.56568 | 53.01116 | 33881 ft | 506 kts | 217° |
| 2026-04-21 21:41 | 14.50600 | 52.97277 | 33876 ft | 505 kts | 217° |
| 2026-04-21 21:41 | 14.44672 | 52.93469 | 33881 ft | 505 kts | 217° |
| 2026-04-21 21:42 | 14.38709 | 52.89643 | 33877 ft | 505 kts | 217° |
| 2026-04-21 21:42 | 14.32740 | 52.85817 | 33861 ft | 505 kts | 217° |
| 2026-04-21 21:43 | 14.26781 | 52.81999 | 33872 ft | 504 kts | 217° |
| 2026-04-21 21:43 | 14.20857 | 52.78207 | 33873 ft | 505 kts | 217° |
| 2026-04-21 21:44 | 14.14893 | 52.74390 | 33876 ft | 505 kts | 216° |
| 2026-04-21 21:44 | 14.08927 | 52.70575 | 33871 ft | 505 kts | 216° |
| 2026-04-21 21:45 | 14.02962 | 52.66763 | 33870 ft | 504 kts | 216° |
| 2026-04-21 21:45 | 13.97000 | 52.62955 | 33864 ft | 504 kts | 216° |
| 2026-04-21 21:46 | 13.91076 | 52.59173 | 33867 ft | 505 kts | 216° |
| 2026-04-21 21:46 | 13.85105 | 52.55365 | 33869 ft | 505 kts | 216° |
| 2026-04-21 21:47 | 13.79131 | 52.51556 | 33864 ft | 505 kts | 216° |
| 2026-04-21 21:47 | 13.73156 | 52.47749 | 33868 ft | 505 kts | 216° |
| 2026-04-21 21:48 | 13.67219 | 52.43969 | 33866 ft | 505 kts | 216° |
| 2026-04-21 21:48 | 13.61246 | 52.40168 | 33866 ft | 505 kts | 216° |
| 2026-04-21 21:49 | 13.55272 | 52.36368 | 33868 ft | 505 kts | 216° |
| 2026-04-21 21:49 | 13.49300 | 52.32572 | 33863 ft | 505 kts | 216° |
| 2026-04-21 21:50 | 13.43366 | 52.28801 | 33864 ft | 505 kts | 216° |
| 2026-04-21 21:50 | 13.37392 | 52.25009 | 33864 ft | 505 kts | 216° |
| 2026-04-21 21:51 | 13.31417 | 52.21232 | 33860 ft | 504 kts | 215° |
| 2026-04-21 21:51 | 13.25438 | 52.17458 | 33859 ft | 504 kts | 215° |
| 2026-04-21 21:52 | 13.19469 | 52.13690 | 33862 ft | 504 kts | 215° |
| 2026-04-21 21:52 | 13.13537 | 52.09945 | 33856 ft | 504 kts | 215° |
| 2026-04-21 21:53 | 13.07566 | 52.06179 | 33855 ft | 504 kts | 215° |
| 2026-04-21 21:53 | 13.01591 | 52.02411 | 33855 ft | 504 kts | 215° |
| 2026-04-21 21:54 | 12.95619 | 51.98648 | 33856 ft | 504 kts | 215° |
| 2026-04-21 21:54 | 12.89687 | 51.94912 | 33856 ft | 504 kts | 215° |
| 2026-04-21 21:55 | 12.83711 | 51.91151 | 33862 ft | 504 kts | 215° |
| 2026-04-21 21:55 | 12.77731 | 51.87390 | 33855 ft | 504 kts | 215° |
| 2026-04-21 21:56 | 12.71749 | 51.83629 | 33856 ft | 504 kts | 215° |
| 2026-04-21 21:56 | 12.65766 | 51.79869 | 33853 ft | 505 kts | 215° |
| 2026-04-21 21:57 | 12.59823 | 51.76137 | 33857 ft | 505 kts | 215° |
| 2026-04-21 21:57 | 12.53838 | 51.72381 | 33860 ft | 505 kts | 215° |
| 2026-04-21 21:58 | 12.47852 | 51.68626 | 33858 ft | 505 kts | 214° |
| 2026-04-21 21:58 | 12.41868 | 51.64874 | 33861 ft | 505 kts | 214° |
| 2026-04-21 21:59 | 12.35918 | 51.61145 | 33853 ft | 505 kts | 214° |
| 2026-04-21 21:59 | 12.29936 | 51.57399 | 33855 ft | 504 kts | 214° |
| 2026-04-21 22:00 | 12.23950 | 51.53652 | 33854 ft | 504 kts | 214° |
| 2026-04-21 22:00 | 12.17971 | 51.49911 | 33848 ft | 504 kts | 214° |
| 2026-04-21 22:01 | 12.11996 | 51.46174 | 33853 ft | 503 kts | 214° |
| 2026-04-21 22:01 | 12.06026 | 51.42442 | 33849 ft | 503 kts | 214° |
| 2026-04-21 22:02 | 12.00094 | 51.38736 | 33850 ft | 503 kts | 214° |
| 2026-04-21 22:02 | 11.94124 | 51.35007 | 33850 ft | 503 kts | 214° |
| 2026-04-21 22:03 | 11.88151 | 51.31277 | 33851 ft | 503 kts | 214° |
| 2026-04-21 22:03 | 11.82182 | 51.27550 | 33852 ft | 503 kts | 214° |
| 2026-04-21 22:04 | 11.76251 | 51.23848 | 33859 ft | 503 kts | 214° |
| 2026-04-21 22:04 | 11.70281 | 51.20125 | 33855 ft | 503 kts | 214° |
| 2026-04-21 22:05 | 11.64304 | 51.16398 | 33864 ft | 503 kts | 214° |
| 2026-04-21 22:05 | 11.58325 | 51.12672 | 33869 ft | 504 kts | 214° |
| 2026-04-21 22:06 | 11.52342 | 51.08946 | 33869 ft | 503 kts | 214° |
| 2026-04-21 22:06 | 11.46407 | 51.05251 | 33888 ft | 503 kts | 214° |
| 2026-04-21 22:07 | 11.40424 | 51.01527 | 33880 ft | 504 kts | 214° |
| 2026-04-21 22:07 | 11.34447 | 50.97808 | 33889 ft | 503 kts | 214° |
| 2026-04-21 22:08 | 11.28475 | 50.94088 | 33894 ft | 503 kts | 214° |
| 2026-04-21 22:08 | 11.22538 | 50.90390 | 33895 ft | 503 kts | 214° |
| 2026-04-21 22:09 | 11.16561 | 50.86669 | 33901 ft | 503 kts | 214° |
| 2026-04-21 22:09 | 11.10588 | 50.82953 | 33897 ft | 503 kts | 214° |
| 2026-04-21 22:10 | 11.04613 | 50.79237 | 33904 ft | 504 kts | 214° |
| 2026-04-21 22:10 | 10.98627 | 50.75517 | 33905 ft | 504 kts | 214° |
| 2026-04-21 22:11 | 10.92680 | 50.71823 | 33897 ft | 504 kts | 214° |
| 2026-04-21 22:11 | 10.86689 | 50.68103 | 33903 ft | 504 kts | 214° |
| 2026-04-21 22:12 | 10.80695 | 50.64383 | 33907 ft | 504 kts | 214° |
| 2026-04-21 22:12 | 10.74698 | 50.60662 | 33893 ft | 505 kts | 214° |
| 2026-04-21 22:13 | 10.68742 | 50.56970 | 33905 ft | 505 kts | 214° |
| 2026-04-21 22:13 | 10.62736 | 50.53247 | 33904 ft | 505 kts | 214° |
| 2026-04-21 22:14 | 10.56732 | 50.49528 | 33904 ft | 506 kts | 213° |
| 2026-04-21 22:14 | 10.50723 | 50.45807 | 33906 ft | 506 kts | 213° |
| 2026-04-21 22:15 | 10.44752 | 50.42112 | 33896 ft | 506 kts | 213° |
| 2026-04-21 22:15 | 10.38742 | 50.38394 | 33908 ft | 506 kts | 213° |
| 2026-04-21 22:16 | 10.32731 | 50.34678 | 33903 ft | 506 kts | 213° |
| 2026-04-21 22:16 | 10.26720 | 50.30963 | 33909 ft | 506 kts | 213° |
| 2026-04-21 22:17 | 10.20704 | 50.27246 | 33905 ft | 506 kts | 213° |
| 2026-04-21 22:17 | 10.14732 | 50.23558 | 33908 ft | 506 kts | 213° |
| 2026-04-21 22:18 | 10.08708 | 50.19840 | 33913 ft | 507 kts | 213° |
| 2026-04-21 22:18 | 10.02685 | 50.16124 | 33912 ft | 507 kts | 213° |
| 2026-04-21 22:19 | 9.96655 | 50.12405 | 33915 ft | 507 kts | 213° |
| 2026-04-21 22:19 | 9.90662 | 50.08711 | 33919 ft | 507 kts | 213° |
| 2026-04-21 22:20 | 9.84633 | 50.04997 | 33919 ft | 507 kts | 213° |
| 2026-04-21 22:20 | 9.78599 | 50.01280 | 33922 ft | 507 kts | 213° |
| 2026-04-21 22:21 | 9.72563 | 49.97564 | 33920 ft | 508 kts | 213° |
| 2026-04-21 22:21 | 9.66571 | 49.93877 | 33926 ft | 507 kts | 213° |
| 2026-04-21 22:22 | 9.60536 | 49.90165 | 33922 ft | 507 kts | 213° |
| 2026-04-21 22:22 | 9.54504 | 49.86456 | 33923 ft | 507 kts | 213° |
| 2026-04-21 22:23 | 9.48474 | 49.82750 | 33919 ft | 507 kts | 213° |
| 2026-04-21 22:23 | 9.42437 | 49.79041 | 33928 ft | 507 kts | 213° |
| 2026-04-21 22:24 | 9.36442 | 49.75359 | 33922 ft | 507 kts | 213° |
| 2026-04-21 22:24 | 9.30410 | 49.71655 | 33919 ft | 507 kts | 213° |
| 2026-04-21 22:25 | 9.24376 | 49.67952 | 33921 ft | 507 kts | 213° |
| 2026-04-21 22:25 | 9.18339 | 49.64253 | 33916 ft | 508 kts | 213° |
| 2026-04-21 22:26 | 9.12332 | 49.60580 | 33923 ft | 508 kts | 213° |
| 2026-04-21 22:26 | 9.06277 | 49.56878 | 33919 ft | 509 kts | 213° |
| 2026-04-21 22:27 | 9.00212 | 49.53170 | 33920 ft | 510 kts | 213° |
| 2026-04-21 22:27 | 8.94143 | 49.49460 | 33917 ft | 509 kts | 213° |
| 2026-04-21 22:28 | 8.88123 | 49.45782 | 33913 ft | 509 kts | 213° |
| 2026-04-21 22:28 | 8.82060 | 49.42079 | 33911 ft | 509 kts | 213° |
| 2026-04-21 22:29 | 8.76009 | 49.38384 | 33913 ft | 508 kts | 213° |
| 2026-04-21 22:29 | 8.69958 | 49.34691 | 33911 ft | 508 kts | 213° |
| 2026-04-21 22:30 | 8.63914 | 49.31003 | 33915 ft | 507 kts | 213° |
| 2026-04-21 22:30 | 8.57911 | 49.27344 | 33910 ft | 507 kts | 213° |
| 2026-04-21 22:31 | 8.51863 | 49.23659 | 33904 ft | 507 kts | 213° |
| 2026-04-21 22:31 | 8.45819 | 49.19976 | 33898 ft | 507 kts | 213° |
| 2026-04-21 22:32 | 8.39778 | 49.16296 | 33896 ft | 507 kts | 213° |
| 2026-04-21 22:32 | 8.33773 | 49.12638 | 33898 ft | 507 kts | 213° |
| 2026-04-21 22:33 | 8.27725 | 49.08956 | 33897 ft | 508 kts | 213° |
| 2026-04-21 22:33 | 8.21670 | 49.05271 | 33902 ft | 508 kts | 213° |
| 2026-04-21 22:34 | 8.15609 | 49.01584 | 33905 ft | 509 kts | 213° |
| 2026-04-21 22:34 | 8.09585 | 48.97921 | 33904 ft | 509 kts | 213° |
| 2026-04-21 22:35 | 8.03516 | 48.94232 | 33898 ft | 509 kts | 213° |
| 2026-04-21 22:35 | 7.97448 | 48.90544 | 33897 ft | 510 kts | 213° |
| 2026-04-21 22:36 | 7.88370 | 48.85030 | 33905 ft | 510 kts | 213° |
| 2026-04-21 22:36 | 7.82288 | 48.81337 | 33905 ft | 511 kts | 213° |
| 2026-04-21 22:37 | 7.76196 | 48.77640 | 33903 ft | 511 kts | 213° |
| 2026-04-21 22:37 | 7.70105 | 48.73944 | 33900 ft | 511 kts | 212° |
| 2026-04-21 22:38 | 7.64046 | 48.70268 | 33892 ft | 512 kts | 212° |
| 2026-04-21 22:38 | 7.57944 | 48.66569 | 33894 ft | 512 kts | 212° |
| 2026-04-21 22:39 | 7.51842 | 48.62869 | 33892 ft | 512 kts | 212° |
| 2026-04-21 22:39 | 7.45745 | 48.59174 | 33889 ft | 511 kts | 212° |
| 2026-04-21 22:40 | 7.39692 | 48.55507 | 33882 ft | 511 kts | 212° |
| 2026-04-21 22:40 | 7.33597 | 48.51814 | 33884 ft | 511 kts | 213° |
| 2026-04-21 22:41 | 7.27532 | 48.48090 | 33881 ft | 511 kts | 213° |
| 2026-04-21 22:41 | 7.21476 | 48.44341 | 33882 ft | 511 kts | 213° |
| 2026-04-21 22:42 | 7.15454 | 48.40618 | 33875 ft | 511 kts | 213° |
| 2026-04-21 22:42 | 7.09392 | 48.36879 | 33869 ft | 511 kts | 213° |
| 2026-04-21 22:43 | 7.03327 | 48.33141 | 33874 ft | 511 kts | 213° |
| 2026-04-21 22:43 | 6.97266 | 48.29407 | 33876 ft | 511 kts | 213° |
| 2026-04-21 22:44 | 6.91240 | 48.25695 | 33868 ft | 511 kts | 213° |
| 2026-04-21 22:44 | 6.85168 | 48.21957 | 33876 ft | 511 kts | 213° |
| 2026-04-21 22:45 | 6.79099 | 48.18220 | 33865 ft | 511 kts | 213° |
| 2026-04-21 22:45 | 6.73028 | 48.14484 | 33870 ft | 512 kts | 213° |